Time;durP1;ratioP1;P1;durP2;ratioP2;P2;SDS_P1;SDS_P2;PMS_P1;PMS_P2;Temp;Humidity;BMP_temperature;BMP_pressure;BME280_temperature;BME280_humidity;BME280_pressure;Samples;Min_cycle;Max_cycle;Signal;HPM_P1;HPM_P2
2023/01/12 00:01:06;;;;;;;1.65;1.55;;;;;;;;;;5033255;28;20049;-93
2023/01/12 00:03:32;;;;;;;3.65;3.55;;;;;;;;;;5033729;28;20467;-94
2023/01/12 00:06:06;;;;;;;1.65;1.55;;;;;;;;;;5036022;28;20053;-93
2023/01/12 00:08:33;;;;;;;2.90;2.60;;;;;;;;;;5036302;28;20111;-93
2023/01/12 00:11:01;;;;;;;3.35;2.92;;;;;;;;;;5036490;28;20567;-93
2023/01/12 00:13:28;;;;;;;1.75;1.63;;;;;;;;;;5036354;28;20490;-93
2023/01/12 00:18:40;;;;;;;2.17;2.05;;;;;;;;;;5036370;28;20056;-93
2023/01/12 00:21:07;;;;;;;3.08;1.70;;;;;;;;;;5036500;28;20099;-93
2023/01/12 00:23:33;;;;;;;3.40;2.83;;;;;;;;;;5036036;28;20045;-93
2023/01/12 00:26:01;;;;;;;2.10;2.00;;;;;;;;;;5036398;28;20103;-93
2023/01/12 00:28:28;;;;;;;4.70;3.03;;;;;;;;;;5036438;28;20053;-93
2023/01/12 00:30:59;;;;;;;1.70;1.60;;;;;;;;;;5036024;28;20042;-93
2023/01/12 00:33:25;;;;;;;;;;;;;;;;;;5036663;28;20099;-92
2023/01/12 00:35:52;;;;;;;1.88;1.77;;;;;;;;;;5035354;28;19925;-92
2023/01/12 00:38:18;;;;;;;2.08;1.90;;;;;;;;;;5036275;28;20045;-93
2023/01/12 00:40:45;;;;;;;3.90;1.90;;;;;;;;;;5035825;28;20053;-92
2023/01/12 00:45:57;;;;;;;2.65;2.53;;;;;;;;;;5036020;28;20520;-92
2023/01/12 00:48:25;;;;;;;1.50;1.45;;;;;;;;;;5035661;28;20053;-92
2023/01/12 00:50:51;;;;;;;1.52;1.45;;;;;;;;;;5036293;28;20050;-92
2023/01/12 00:53:18;;;;;;;1.45;1.20;;;;;;;;;;5035608;28;20099;-92
2023/01/12 00:55:45;;;;;;;1.70;1.60;;;;;;;;;;5035767;28;20330;-92
2023/01/12 00:58:13;;;;;;;2.63;2.42;;;;;;;;;;5035485;28;20053;-92
2023/01/12 01:00:39;;;;;;;2.92;2.70;;;;;;;;;;5035748;28;20049;-92
2023/01/12 01:03:06;;;;;;;3.85;2.05;;;;;;;;;;5035378;28;20111;-95
2023/01/12 01:05:32;;;;;;;2.58;2.40;;;;;;;;;;5034975;28;20099;-92
2023/01/12 01:07:58;;;;;;;4.88;3.30;;;;;;;;;;5035320;28;20102;-92
2023/01/12 01:10:25;;;;;;;1.63;1.52;;;;;;;;;;5035136;28;20112;-93
2023/01/12 01:12:51;;;;;;;2.67;2.47;;;;;;;;;;5035248;28;20049;-93
2023/01/12 01:15:19;;;;;;;2.13;1.88;;;;;;;;;;5034549;28;20053;-93
2023/01/12 01:17:46;;;;;;;3.78;3.58;;;;;;;;;;5035398;28;20406;-93
2023/01/12 01:20:12;;;;;;;4.10;3.05;;;;;;;;;;5035438;28;20045;-93
2023/01/12 01:22:39;;;;;;;2.78;2.58;;;;;;;;;;5035343;28;20057;-93
2023/01/12 01:25:06;;;;;;;3.35;3.15;;;;;;;;;;5015183;28;20049;-93
2023/01/12 01:27:32;;;;;;;2.92;1.90;;;;;;;;;;5015464;28;20053;-92
2023/01/12 01:29:59;;;;;;;3.75;2.08;;;;;;;;;;5015420;28;20050;-93
2023/01/12 01:32:27;;;;;;;1.38;1.27;;;;;;;;;;5015023;28;20050;-92
2023/01/12 01:34:53;;;;;;;2.28;2.17;;;;;;;;;;5015305;28;20124;-93
2023/01/12 01:37:20;;;;;;;3.50;2.58;;;;;;;;;;5015192;28;20101;-93
2023/01/12 01:39:47;;;;;;;2.13;2.03;;;;;;;;;;5032950;28;20045;-95
2023/01/12 01:42:26;;;;;;;2.25;2.13;;;;;;;;;;5035035;28;20131;-94
2023/01/12 01:44:54;;;;;;;4.30;3.22;;;;;;;;;;5034565;28;20079;-95
2023/01/12 01:47:26;;;;;;;1.77;1.67;;;;;;;;;;5034677;28;20111;-93
2023/01/12 01:49:56;;;;;;;5.30;1.85;;;;;;;;;;5034787;28;20107;-92
2023/01/12 01:52:23;;;;;;;1.10;1.00;;;;;;;;;;5034781;28;20049;-92
2023/01/12 01:54:52;;;;;;;0.98;0.98;;;;;;;;;;5034538;28;20378;-93
2023/01/12 01:57:20;;;;;;;2.75;2.13;;;;;;;;;;5034679;28;20104;-93
2023/01/12 01:59:48;;;;;;;2.92;2.00;;;;;;;;;;5034638;28;20053;-93
2023/01/12 02:02:15;;;;;;;1.40;1.30;;;;;;;;;;5034611;28;20049;-92
2023/01/12 02:04:42;;;;;;;1.50;1.40;;;;;;;;;;5034145;28;20099;-92
2023/01/12 02:07:10;;;;;;;5.28;2.25;;;;;;;;;;5034467;28;20103;-93
2023/01/12 02:09:37;;;;;;;5.07;4.55;;;;;;;;;;5034202;28;20049;-94
2023/01/12 02:17:49;;;;;;;2.10;1.90;;;;;;;;;;5034173;28;20560;-92
2023/01/12 02:20:33;;;;;;;2.20;2.10;;;;;;;;;;5037912;28;20045;-93
2023/01/12 02:23:18;;;;;;;1.33;1.23;;;;;;;;;;5054103;28;20095;-93
2023/01/12 02:26:02;;;;;;;2.95;1.70;;;;;;;;;;5013458;28;20103;-91
2023/01/12 02:28:47;;;;;;;2.25;1.90;;;;;;;;;;5039510;28;20049;-92
2023/01/12 02:31:20;;;;;;;3.90;3.70;;;;;;;;;;5033825;28;20402;-92
2023/01/12 02:33:55;;;;;;;4.18;2.38;;;;;;;;;;5034005;28;20055;-92
2023/01/12 02:36:26;;;;;;;4.05;3.75;;;;;;;;;;5033966;28;20661;-92
2023/01/12 02:38:56;;;;;;;1.35;1.17;;;;;;;;;;5033929;28;20107;-92
2023/01/12 02:42:40;;;;;;;1.65;1.42;;;;;;;;;;5033904;28;20115;-93
2023/01/12 02:44:16;;;;;;;1.70;1.60;;;;;;;;;;5033387;28;20077;-93
2023/01/12 02:46:46;;;;;;;4.32;3.88;;;;;;;;;;5033689;28;20474;-94
2023/01/12 02:49:14;;;;;;;2.63;1.27;;;;;;;;;;5033506;28;20049;-93
2023/01/12 02:51:43;;;;;;;1.10;0.90;;;;;;;;;;5033817;28;20046;-92
2023/01/12 02:54:10;;;;;;;2.70;2.50;;;;;;;;;;5033442;28;20045;-93
2023/01/12 02:56:39;;;;;;;4.13;3.00;;;;;;;;;;5033715;28;20050;-93
2023/01/12 02:59:09;;;;;;;1.55;1.42;;;;;;;;;;5033675;28;20148;-93
2023/01/12 03:01:36;;;;;;;2.22;2.13;;;;;;;;;;5033996;28;20058;-95
2023/01/12 03:04:06;;;;;;;1.83;1.67;;;;;;;;;;5034473;28;20046;-95
2023/01/12 03:06:38;;;;;;;1.90;1.80;;;;;;;;;;5033812;28;20045;-96
2023/01/12 03:09:05;;;;;;;3.13;2.90;;;;;;;;;;5033651;28;20057;-95
2023/01/12 03:11:31;;;;;;;1.67;1.58;;;;;;;;;;5033718;28;20045;-95
2023/01/12 03:13:59;;;;;;;1.98;1.88;;;;;;;;;;5033553;28;20107;-95
2023/01/12 03:16:27;;;;;;;3.53;1.63;;;;;;;;;;5033489;28;20107;-95
2023/01/12 03:18:55;;;;;;;2.10;1.67;;;;;;;;;;5033405;28;20559;-94
2023/01/12 03:21:27;;;;;;;1.27;1.20;;;;;;;;;;5033501;28;20049;-94
2023/01/12 03:23:53;;;;;;;;;;;;;;;;;;5033838;28;20053;-94
2023/01/12 03:26:22;;;;;;;1.92;1.48;;;;;;;;;;5033473;28;20347;-94
2023/01/12 03:28:51;;;;;;;3.45;2.60;;;;;;;;;;5033546;28;20077;-93
2023/01/12 03:31:17;;;;;;;1.13;1.13;;;;;;;;;;5033569;28;20053;-93
2023/01/12 03:33:44;;;;;;;2.20;2.10;;;;;;;;;;5033628;28;20474;-93
2023/01/12 03:36:23;;;;;;;2.72;2.47;;;;;;;;;;5034353;28;20452;-93
2023/01/12 03:38:54;;;;;;;2.40;2.28;;;;;;;;;;5035366;28;20050;-94
2023/01/12 03:41:25;;;;;;;2.42;2.33;;;;;;;;;;5037687;28;20107;-93
2023/01/12 03:43:54;;;;;;;2.67;2.10;;;;;;;;;;5036789;28;20045;-93
2023/01/12 03:46:26;;;;;;;3.33;1.83;;;;;;;;;;5037251;28;20075;-92
2023/01/12 03:48:54;;;;;;;0.68;0.68;;;;;;;;;;5036896;28;20728;-92
2023/01/12 03:51:23;;;;;;;2.30;1.98;;;;;;;;;;5037093;28;20049;-92
2023/01/12 03:53:51;;;;;;;4.88;4.47;;;;;;;;;;5036752;28;20394;-92
2023/01/12 03:56:19;;;;;;;2.53;1.95;;;;;;;;;;5036803;28;20057;-92
2023/01/12 03:58:46;;;;;;;1.83;1.73;;;;;;;;;;5037014;28;20080;-92
2023/01/12 04:01:13;;;;;;;7.38;4.82;;;;;;;;;;5037618;28;20401;-91
2023/01/12 04:03:39;;;;;;;4.50;1.95;;;;;;;;;;5038647;28;20477;-92
2023/01/12 04:06:07;;;;;;;1.60;1.50;;;;;;;;;;5022567;28;20069;-93
2023/01/12 04:08:34;;;;;;;1.75;1.65;;;;;;;;;;5018560;28;20117;-92
2023/01/12 04:12:08;;;;;;;3.65;1.80;;;;;;;;;;5017518;28;20107;-92
2023/01/12 04:13:48;;;;;;;1.95;1.85;;;;;;;;;;5016447;28;20074;-92
2023/01/12 04:16:14;;;;;;;1.85;1.75;;;;;;;;;;5016872;28;20108;-92
2023/01/12 04:18:41;;;;;;;3.83;2.75;;;;;;;;;;5016825;28;20049;-93
2023/01/12 04:22:41;;;;;;;2.38;2.28;;;;;;;;;;5016368;28;20100;-92
2023/01/12 04:23:53;;;;;;;1.55;1.45;;;;;;;;;;5016501;28;20128;-93
2023/01/12 04:26:20;;;;;;;1.75;1.65;;;;;;;;;;5016353;28;20812;-93
2023/01/12 04:28:48;;;;;;;1.90;1.80;;;;;;;;;;5016270;28;20049;-93
2023/01/12 04:31:15;;;;;;;1.45;1.35;;;;;;;;;;5016581;28;20050;-93
2023/01/12 04:33:41;;;;;;;2.65;1.75;;;;;;;;;;5016212;28;20045;-93
2023/01/12 04:36:10;;;;;;;2.45;2.25;;;;;;;;;;5016489;28;20045;-93
2023/01/12 04:38:37;;;;;;;2.53;2.33;;;;;;;;;;5016346;28;20054;-94
2023/01/12 04:41:03;;;;;;;3.45;2.40;;;;;;;;;;5016072;28;20050;-93
2023/01/12 04:43:29;;;;;;;2.38;2.28;;;;;;;;;;5016378;28;20104;-93
2023/01/12 04:45:57;;;;;;;3.10;2.88;;;;;;;;;;5016043;28;20052;-93
2023/01/12 04:48:24;;;;;;;4.60;4.40;;;;;;;;;;5016244;28;20487;-93
2023/01/12 04:50:50;;;;;;;1.45;1.42;;;;;;;;;;5015002;28;20053;-92
2023/01/12 04:53:17;;;;;;;2.60;2.20;;;;;;;;;;5017971;28;20053;-92
2023/01/12 04:55:43;;;;;;;2.05;1.92;;;;;;;;;;5015904;28;20061;-93
2023/01/12 04:58:10;;;;;;;2.95;2.75;;;;;;;;;;5034301;28;20099;-92
2023/01/12 05:00:37;;;;;;;2.15;1.40;;;;;;;;;;5035776;28;20118;-92
2023/01/12 05:03:04;;;;;;;2.00;1.85;;;;;;;;;;5035407;28;20099;-92
2023/01/12 05:05:32;;;;;;;1.17;1.17;;;;;;;;;;5035658;28;20053;-92
2023/01/12 05:10:43;;;;;;;3.15;2.85;;;;;;;;;;5035478;28;20123;-92
2023/01/12 05:13:09;;;;;;;1.65;1.60;;;;;;;;;;5035245;28;20046;-92
2023/01/12 05:15:36;;;;;;;5.13;2.53;;;;;;;;;;5035669;28;20041;-93
2023/01/12 05:18:02;;;;;;;2.63;2.50;;;;;;;;;;5035448;28;20050;-93
2023/01/12 05:20:30;;;;;;;2.22;2.13;;;;;;;;;;5035637;28;20049;-92
2023/01/12 05:22:56;;;;;;;4.00;3.80;;;;;;;;;;5035497;28;20099;-93
2023/01/12 05:25:23;;;;;;;2.90;2.70;;;;;;;;;;5035122;28;20049;-93
2023/01/12 05:27:49;;;;;;;1.83;1.73;;;;;;;;;;5036971;28;20489;-92
2023/01/12 05:30:16;;;;;;;1.70;1.60;;;;;;;;;;5035305;28;20050;-92
2023/01/12 05:32:43;;;;;;;3.78;2.20;;;;;;;;;;5035433;28;20445;-92
2023/01/12 05:35:10;;;;;;;1.50;1.40;;;;;;;;;;5035218;28;20160;-93
2023/01/12 05:37:38;;;;;;;2.22;2.10;;;;;;;;;;5035725;28;20103;-93
2023/01/12 05:40:05;;;;;;;1.73;1.63;;;;;;;;;;5035057;28;20053;-92
2023/01/12 05:45:15;;;;;;;1.50;1.40;;;;;;;;;;5034828;28;20191;-93
2023/01/12 05:47:42;;;;;;;3.45;1.27;;;;;;;;;;5035160;28;20045;-94
2023/01/12 05:50:09;;;;;;;1.10;1.08;;;;;;;;;;5034975;28;20099;-93
2023/01/12 05:52:35;;;;;;;0.98;0.98;;;;;;;;;;5035823;28;20103;-93
2023/01/12 05:55:03;;;;;;;4.97;1.85;;;;;;;;;;5034658;28;20061;-92
2023/01/12 05:57:30;;;;;;;3.83;3.58;;;;;;;;;;5034466;28;20456;-92
2023/01/12 05:59:56;;;;;;;3.38;3.17;;;;;;;;;;5034942;28;20127;-94
2023/01/12 06:02:23;;;;;;;2.08;1.98;;;;;;;;;;5034617;28;20103;-93
2023/01/12 06:04:50;;;;;;;1.67;1.58;;;;;;;;;;5039561;28;20085;-92
2023/01/12 06:07:16;;;;;;;1.67;0.68;;;;;;;;;;5036929;28;20126;-92
2023/01/12 06:09:43;;;;;;;1.63;1.35;;;;;;;;;;5035392;28;20096;-93
2023/01/12 06:14:55;;;;;;;3.78;3.45;;;;;;;;;;5033807;28;20068;-89
2023/01/12 06:17:21;;;;;;;2.30;2.20;;;;;;;;;;5034035;28;20049;-92
2023/01/12 06:19:48;;;;;;;5.28;4.95;;;;;;;;;;5030861;28;20481;-91
2023/01/12 06:22:14;;;;;;;3.38;3.08;;;;;;;;;;5029438;28;20053;-92
2023/01/12 06:24:41;;;;;;;1.65;1.55;;;;;;;;;;5034120;28;20053;-92
2023/01/12 06:27:07;;;;;;;5.05;4.45;;;;;;;;;;5034022;28;20053;-92
2023/01/12 06:29:35;;;;;;;2.40;2.20;;;;;;;;;;5034093;28;20050;-91
2023/01/12 06:32:02;;;;;;;2.65;2.45;;;;;;;;;;5034022;28;20053;-91
2023/01/12 06:34:33;;;;;;;2.33;2.22;;;;;;;;;;5033636;28;20103;-91
2023/01/12 06:37:00;;;;;;;2.53;2.40;;;;;;;;;;5033628;28;20128;-91
2023/01/12 06:39:26;;;;;;;1.77;1.40;;;;;;;;;;5033879;28;20448;-92
2023/01/12 06:44:52;;;;;;;2.28;2.17;;;;;;;;;;4956582;28;20511;-92
2023/01/12 06:47:19;;;;;;;6.47;1.95;;;;;;;;;;4971257;28;20534;-92
2023/01/12 06:49:45;;;;;;;1.10;1.08;;;;;;;;;;4972374;28;20051;-92
2023/01/12 06:52:12;;;;;;;1.65;1.55;;;;;;;;;;4972307;28;20102;-91
2023/01/12 06:54:38;;;;;;;5.50;2.90;;;;;;;;;;4965200;28;20141;-90
2023/01/12 06:57:05;;;;;;;2.30;2.17;;;;;;;;;;4972326;28;20047;-90
2023/01/12 06:59:31;;;;;;;5.50;3.22;;;;;;;;;;4956228;28;20046;-90
2023/01/12 07:01:59;;;;;;;4.68;2.85;;;;;;;;;;4964605;28;20109;-92
2023/01/12 07:04:26;;;;;;;2.85;2.60;;;;;;;;;;4963399;28;20054;-92
2023/01/12 07:06:53;;;;;;;5.80;3.70;;;;;;;;;;4961801;28;20101;-91
2023/01/12 07:09:20;;;;;;;4.88;4.47;;;;;;;;;;4971773;28;20046;-91
2023/01/12 07:11:46;;;;;;;6.88;6.32;;;;;;;;;;4970875;28;20389;-92
2023/01/12 07:14:13;;;;;;;7.78;4.95;;;;;;;;;;4968604;28;20051;-91
2023/01/12 07:16:39;;;;;;;9.55;4.65;;;;;;;;;;5024324;28;20095;-92
2023/01/12 07:19:07;;;;;;;2.38;2.28;;;;;;;;;;5033209;28;20049;-91
2023/01/12 07:21:34;;;;;;;4.65;4.35;;;;;;;;;;5033182;28;20112;-91
2023/01/12 07:24:00;;;;;;;6.53;6.03;;;;;;;;;;5050711;28;20386;-91
2023/01/12 07:26:27;;;;;;;3.53;3.22;;;;;;;;;;5036631;28;20075;-91
2023/01/12 07:28:55;;;;;;;3.50;3.20;;;;;;;;;;5031332;28;20425;-91
2023/01/12 07:31:21;;;;;;;2.15;2.05;;;;;;;;;;5032451;28;20091;-91
2023/01/12 07:33:50;;;;;;;3.00;2.80;;;;;;;;;;5029888;28;20544;-91
2023/01/12 07:36:18;;;;;;;5.63;2.95;;;;;;;;;;5032458;28;20053;-91
2023/01/12 07:38:45;;;;;;;4.28;3.90;;;;;;;;;;5032870;28;20069;-91
2023/01/12 07:42:22;;;;;;;2.35;2.25;;;;;;;;;;5032665;28;20053;-91
2023/01/12 07:43:58;;;;;;;3.10;2.88;;;;;;;;;;5032821;28;20481;-91
2023/01/12 07:46:25;;;;;;;3.08;1.83;;;;;;;;;;5032849;28;20123;-91
2023/01/12 07:48:51;;;;;;;4.45;2.75;;;;;;;;;;5032721;28;20042;-91
2023/01/12 07:51:19;;;;;;;6.18;3.80;;;;;;;;;;5032322;28;20520;-92
2023/01/12 07:53:46;;;;;;;5.15;4.03;;;;;;;;;;5032558;28;20046;-91
2023/01/12 07:56:14;;;;;;;4.00;3.00;;;;;;;;;;5032928;28;20054;-91
2023/01/12 07:58:41;;;;;;;1.40;1.30;;;;;;;;;;5032777;28;20064;-91
2023/01/12 08:01:08;;;;;;;4.13;3.83;;;;;;;;;;5021952;28;20453;-90
2023/01/12 08:03:34;;;;;;;1.02;0.93;;;;;;;;;;5026201;28;20049;-91
2023/01/12 08:06:01;;;;;;;1.95;1.85;;;;;;;;;;5032355;28;20055;-90
2023/01/12 08:08:29;;;;;;;4.15;3.85;;;;;;;;;;5032543;28;20049;-91
2023/01/12 08:11:00;;;;;;;2.45;2.25;;;;;;;;;;5033066;28;20100;-90
2023/01/12 08:13:26;;;;;;;4.18;3.90;;;;;;;;;;5032315;28;20053;-90
2023/01/12 08:15:53;;;;;;;2.67;2.47;;;;;;;;;;5032476;28;20509;-91
2023/01/12 08:18:22;;;;;;;3.75;3.47;;;;;;;;;;5031753;28;20493;-89
2023/01/12 08:20:48;;;;;;;2.45;2.35;;;;;;;;;;5031671;28;20148;-89
2023/01/12 08:23:16;;;;;;;3.92;3.60;;;;;;;;;;5016362;28;20049;-90
2023/01/12 08:25:46;;;;;;;4.50;4.20;;;;;;;;;;5034076;28;20111;-89
2023/01/12 08:28:14;;;;;;;2.97;2.58;;;;;;;;;;5024501;28;20477;-89
2023/01/12 08:30:40;;;;;;;2.58;2.47;;;;;;;;;;5035455;28;20045;-90
2023/01/12 08:33:07;;;;;;;3.28;2.90;;;;;;;;;;5035394;28;20084;-89
2023/01/12 08:35:34;;;;;;;3.35;2.90;;;;;;;;;;5034966;28;20109;-89
2023/01/12 08:38:00;;;;;;;3.55;2.65;;;;;;;;;;5035186;28;20107;-90
2023/01/12 08:41:31;;;;;;;2.42;2.22;;;;;;;;;;5035376;28;20053;-90
2023/01/12 08:44:00;;;;;;;4.32;4.00;;;;;;;;;;5035010;28;20056;-90
2023/01/12 08:46:06;;;;;;;2.72;2.58;;;;;;;;;;5020629;28;20041;-89
2023/01/12 08:48:33;;;;;;;2.22;2.03;;;;;;;;;;5044608;28;20475;-90
2023/01/12 08:51:00;;;;;;;4.80;4.35;;;;;;;;;;5041990;28;20053;-90
2023/01/12 08:53:26;;;;;;;2.63;2.47;;;;;;;;;;5034983;28;20053;-90
2023/01/12 08:55:53;;;;;;;3.30;3.10;;;;;;;;;;5034964;28;20060;-90
2023/01/12 08:58:21;;;;;;;2.90;2.75;;;;;;;;;;5035160;28;20767;-90
2023/01/12 09:00:48;;;;;;;1.83;1.73;;;;;;;;;;5034918;28;20061;-90
2023/01/12 09:03:14;;;;;;;4.15;3.85;;;;;;;;;;5035217;28;20050;-91
2023/01/12 09:05:41;;;;;;;2.85;2.70;;;;;;;;;;5032409;28;20045;-89
2023/01/12 09:08:07;;;;;;;4.00;2.50;;;;;;;;;;5021450;28;20080;-90
2023/01/12 09:10:34;;;;;;;1.77;1.58;;;;;;;;;;5034946;28;20175;-90
2023/01/12 09:13:00;;;;;;;3.97;3.78;;;;;;;;;;5035081;28;20095;-89
2023/01/12 09:15:28;;;;;;;2.15;2.03;;;;;;;;;;5034463;28;20053;-90
2023/01/12 09:17:55;;;;;;;2.60;2.50;;;;;;;;;;5034506;28;20103;-89
2023/01/12 09:20:22;;;;;;;2.83;2.22;;;;;;;;;;5035032;28;20046;-89
2023/01/12 09:22:49;;;;;;;1.00;0.95;;;;;;;;;;5034487;28;20053;-89
2023/01/12 09:25:15;;;;;;;2.55;2.25;;;;;;;;;;5034781;28;20118;-89
2023/01/12 09:27:42;;;;;;;1.23;1.20;;;;;;;;;;5034044;28;20457;-89
2023/01/12 09:30:09;;;;;;;4.45;2.95;;;;;;;;;;5034254;28;20049;-88
2023/01/12 09:32:37;;;;;;;2.03;1.92;;;;;;;;;;5034431;28;20053;-89
2023/01/12 09:35:04;;;;;;;1.95;1.85;;;;;;;;;;5033776;28;20050;-89
2023/01/12 09:37:30;;;;;;;4.47;4.22;;;;;;;;;;5033651;28;20049;-89
2023/01/12 09:39:56;;;;;;;2.65;2.28;;;;;;;;;;5033780;28;20099;-89
2023/01/12 09:48:02;;;;;;;2.50;2.30;;;;;;;;;;5002344;28;20060;-89
2023/01/12 09:50:32;;;;;;;3.42;3.22;;;;;;;;;;5023233;28;20061;-89
2023/01/12 09:53:01;;;;;;;2.20;2.10;;;;;;;;;;5033677;28;20049;-88
2023/01/12 09:55:33;;;;;;;3.67;3.38;;;;;;;;;;5033733;28;20489;-89
2023/01/12 09:58:06;;;;;;;3.58;3.38;;;;;;;;;;5033876;28;20099;-89
2023/01/12 10:00:32;;;;;;;2.22;2.03;;;;;;;;;;5033403;28;20456;-89
2023/01/12 10:03:06;;;;;;;3.28;2.97;;;;;;;;;;5034580;28;20061;-88
2023/01/12 10:05:36;;;;;;;2.67;2.58;;;;;;;;;;5035697;28;20049;-89
2023/01/12 10:08:03;;;;;;;3.97;3.67;;;;;;;;;;5033396;28;20042;-89
2023/01/12 10:10:29;;;;;;;1.70;1.60;;;;;;;;;;5033684;28;20437;-89
2023/01/12 10:12:59;;;;;;;2.53;2.42;;;;;;;;;;5033835;28;20083;-89
2023/01/12 10:15:31;;;;;;;3.92;3.28;;;;;;;;;;5033693;28;20057;-89
2023/01/12 10:18:02;;;;;;;4.80;3.60;;;;;;;;;;5033340;28;20042;-89
2023/01/12 10:20:33;;;;;;;3.13;3.00;;;;;;;;;;5033443;28;20053;-90
2023/01/12 10:23:05;;;;;;;3.10;2.63;;;;;;;;;;5033441;28;20045;-89
2023/01/12 10:25:34;;;;;;;1.85;1.73;;;;;;;;;;5033289;28;20058;-89
2023/01/12 10:28:05;;;;;;;2.47;2.28;;;;;;;;;;5033501;28;20047;-89
2023/01/12 10:30:32;;;;;;;;;;;;;;;;;;5017076;28;20052;-91
2023/01/12 10:33:07;;;;;;;2.38;2.28;;;;;;;;;;5026537;28;19941;-89
2023/01/12 10:35:35;;;;;;;2.72;2.63;;;;;;;;;;5033269;28;20123;-89
2023/01/12 10:38:13;;;;;;;3.10;2.90;;;;;;;;;;5032949;28;20046;-89
2023/01/12 10:40:39;;;;;;;3.58;2.38;;;;;;;;;;5022436;28;20108;-90
2023/01/12 10:43:20;;;;;;;1.73;1.63;;;;;;;;;;5016020;28;20506;-89
2023/01/12 10:46:02;;;;;;;3.90;3.58;;;;;;;;;;5013766;28;20048;-89
2023/01/12 10:48:29;;;;;;;2.78;2.63;;;;;;;;;;5021303;28;20045;-90
2023/01/12 10:50:58;;;;;;;3.47;3.28;;;;;;;;;;5033027;28;20057;-89
2023/01/12 10:53:27;;;;;;;3.10;2.90;;;;;;;;;;5032711;28;20045;-89
2023/01/12 10:55:55;;;;;;;2.03;1.92;;;;;;;;;;5032861;28;20107;-89
2023/01/12 10:58:22;;;;;;;1.27;1.20;;;;;;;;;;5033041;28;20049;-89
2023/01/12 11:00:50;;;;;;;3.10;2.90;;;;;;;;;;5032556;28;20840;-89
2023/01/12 11:03:31;;;;;;;1.23;1.23;;;;;;;;;;5032849;28;20501;-89
2023/01/12 11:06:13;;;;;;;2.42;2.33;;;;;;;;;;5018168;28;20125;-89
2023/01/12 11:08:40;;;;;;;1.88;1.63;;;;;;;;;;5032748;28;20501;-88
2023/01/12 11:11:14;;;;;;;1.83;1.73;;;;;;;;;;5032986;28;20054;-89
2023/01/12 11:13:40;;;;;;;3.22;3.03;;;;;;;;;;5032519;28;20104;-89
2023/01/12 11:16:10;;;;;;;1.45;1.40;;;;;;;;;;5033113;28;20440;-89
2023/01/12 11:18:38;;;;;;;3.30;2.17;;;;;;;;;;5033018;28;20444;-89
2023/01/12 11:21:08;;;;;;;2.95;2.75;;;;;;;;;;5032950;28;20095;-89
2023/01/12 11:23:39;;;;;;;4.68;2.35;;;;;;;;;;5032421;28;20099;-89
2023/01/12 11:26:09;;;;;;;1.67;1.58;;;;;;;;;;5033230;28;20401;-89
2023/01/12 11:28:38;;;;;;;2.55;2.42;;;;;;;;;;5033627;28;20452;-89
2023/01/12 11:31:06;;;;;;;2.45;2.25;;;;;;;;;;5048845;28;20061;-90
2023/01/12 11:33:37;;;;;;;3.22;3.03;;;;;;;;;;5031182;28;20054;-89
2023/01/12 11:36:05;;;;;;;2.38;2.25;;;;;;;;;;5028625;28;20111;-89
2023/01/12 11:38:35;;;;;;;2.90;2.78;;;;;;;;;;5023800;28;20489;-90
2023/01/12 11:41:03;;;;;;;2.00;1.90;;;;;;;;;;5014403;28;20100;-89
2023/01/12 11:43:49;;;;;;;5.18;4.82;;;;;;;;;;5031391;28;20459;-89
2023/01/12 11:46:22;;;;;;;1.90;1.60;;;;;;;;;;5020632;28;20127;-89
2023/01/12 11:48:54;;;;;;;2.00;1.90;;;;;;;;;;5034473;28;20058;-89
2023/01/12 11:51:21;;;;;;;1.88;1.77;;;;;;;;;;5033701;28;20053;-89
2023/01/12 11:53:49;;;;;;;3.95;3.65;;;;;;;;;;5032371;28;20045;-87
2023/01/12 11:56:23;;;;;;;2.03;1.92;;;;;;;;;;5032265;28;20053;-89
2023/01/12 11:58:53;;;;;;;14.68;3.55;;;;;;;;;;5033993;28;20099;-90
2023/01/12 12:01:23;;;;;;;4.38;4.13;;;;;;;;;;5056062;28;20397;-90
2023/01/12 12:03:54;;;;;;;2.75;2.65;;;;;;;;;;5016715;28;20391;-88
2023/01/12 12:06:52;;;;;;;3.20;3.00;;;;;;;;;;5016719;28;20081;-87
2023/01/12 12:09:32;;;;;;;2.97;2.88;;;;;;;;;;5016836;28;20054;-90
2023/01/12 12:12:00;;;;;;;3.05;2.78;;;;;;;;;;5016331;28;20057;-88
2023/01/12 12:14:34;;;;;;;3.72;3.42;;;;;;;;;;5016680;28;20054;-88
2023/01/12 12:17:04;;;;;;;2.75;2.65;;;;;;;;;;5016672;28;20046;-88
2023/01/12 12:19:35;;;;;;;2.17;2.03;;;;;;;;;;5017278;28;20485;-88
2023/01/12 12:22:07;;;;;;;3.28;3.03;;;;;;;;;;5035634;28;20049;-89
2023/01/12 12:24:51;;;;;;;3.53;3.33;;;;;;;;;;5035825;28;20061;-89
2023/01/12 12:27:23;;;;;;;2.15;2.05;;;;;;;;;;5035891;28;20123;-89
2023/01/12 12:30:19;;;;;;;2.42;2.33;;;;;;;;;;5019652;28;20049;-89
2023/01/12 12:32:48;;;;;;;2.15;2.05;;;;;;;;;;4943880;29;20060;-89
2023/01/12 12:35:23;;;;;;;1.50;1.35;;;;;;;;;;4950066;29;20051;-88
2023/01/12 12:37:56;;;;;;;3.70;2.35;;;;;;;;;;4939494;29;20051;-88
2023/01/12 12:45:14;;;;;;;3.10;2.88;;;;;;;;;;4946689;29;20051;-89
2023/01/12 12:46:10;;;;;;;4.00;3.05;;;;;;;;;;4928958;29;20095;-89
2023/01/12 12:48:41;;;;;;;2.83;2.65;;;;;;;;;;4944484;29;20048;-89
2023/01/12 12:51:08;;;;;;;2.53;2.00;;;;;;;;;;4949535;29;20102;-89
2023/01/12 12:53:36;;;;;;;2.90;2.80;;;;;;;;;;4938585;29;20062;-89
2023/01/12 12:56:05;;;;;;;2.67;2.47;;;;;;;;;;4949140;28;20051;-89
2023/01/12 12:58:42;;;;;;;2.10;1.92;;;;;;;;;;4935499;29;20052;-89
2023/01/12 13:01:42;;;;;;;2.15;1.85;;;;;;;;;;4949543;29;20436;-89
2023/01/12 13:04:09;;;;;;;2.45;2.33;;;;;;;;;;4929363;29;20051;-89
2023/01/12 13:06:37;;;;;;;2.95;2.78;;;;;;;;;;4974331;28;20080;-89
2023/01/12 13:09:24;;;;;;;2.50;2.40;;;;;;;;;;5034878;28;20128;-89
2023/01/12 13:11:53;;;;;;;3.20;3.10;;;;;;;;;;5018135;28;20076;-89
2023/01/12 13:14:21;;;;;;;2.33;2.17;;;;;;;;;;5033618;28;20127;-89
2023/01/12 13:16:48;;;;;;;3.47;3.17;;;;;;;;;;5034712;28;20049;-89
2023/01/12 13:19:31;;;;;;;1.92;1.55;;;;;;;;;;5034727;28;20049;-89
2023/01/12 13:21:58;;;;;;;4.15;3.85;;;;;;;;;;5019746;28;20481;-89
2023/01/12 13:24:29;;;;;;;2.55;2.20;;;;;;;;;;5035414;28;20080;-89
2023/01/12 13:26:59;;;;;;;2.30;2.20;;;;;;;;;;5036781;28;20060;-89
2023/01/12 13:29:35;;;;;;;3.25;2.67;;;;;;;;;;5034016;28;20410;-89
2023/01/12 13:32:16;;;;;;;3.35;3.15;;;;;;;;;;5020698;28;20045;-90
2023/01/12 13:34:45;;;;;;;4.50;4.10;;;;;;;;;;5033973;28;20099;-90
2023/01/12 13:37:18;;;;;;;2.88;2.75;;;;;;;;;;5034439;28;20053;-89
2023/01/12 13:39:50;;;;;;;2.63;2.50;;;;;;;;;;5034646;28;20102;-89
2023/01/12 13:45:09;;;;;;;2.80;2.58;;;;;;;;;;5033992;28;20175;-89
2023/01/12 13:47:36;;;;;;;3.45;3.25;;;;;;;;;;5034238;28;20107;-89
2023/01/12 13:50:03;;;;;;;10.48;2.88;;;;;;;;;;5034287;28;20067;-89
2023/01/12 13:52:31;;;;;;;2.70;2.50;;;;;;;;;;5034093;28;20057;-90
2023/01/12 13:54:58;;;;;;;3.47;3.20;;;;;;;;;;5033929;28;20049;-88
2023/01/12 13:57:27;;;;;;;1.85;1.75;;;;;;;;;;5033391;28;20433;-89
2023/01/12 13:59:57;;;;;;;3.15;2.95;;;;;;;;;;5033660;28;20045;-88
2023/01/12 14:02:25;;;;;;;2.92;2.83;;;;;;;;;;5033574;28;20049;-88
2023/01/12 14:05:00;;;;;;;3.10;2.40;;;;;;;;;;5033522;28;20045;-88
2023/01/12 14:07:36;;;;;;;4.05;2.17;;;;;;;;;;5033291;28;20493;-89
2023/01/12 14:10:14;;;;;;;2.35;2.25;;;;;;;;;;5028754;28;20053;-88
2023/01/12 14:12:49;;;;;;;2.78;2.58;;;;;;;;;;5027910;28;20057;-89
2023/01/12 14:18:09;;;;;;;2.50;2.03;;;;;;;;;;5013781;28;20060;-88
2023/01/12 14:20:40;;;;;;;1.60;1.30;;;;;;;;;;5014091;28;20100;-87
2023/01/12 14:23:17;;;;;;;2.22;1.67;;;;;;;;;;5013351;28;20046;-87
2023/01/12 14:25:45;;;;;;;3.38;3.28;;;;;;;;;;5013978;28;20105;-88
2023/01/12 14:28:20;;;;;;;1.88;1.60;;;;;;;;;;5013507;28;20492;-89
2023/01/12 14:30:47;;;;;;;2.42;2.33;;;;;;;;;;5013840;28;20104;-88
2023/01/12 14:33:16;;;;;;;1.05;1.02;;;;;;;;;;5013893;28;20473;-87
2023/01/12 14:35:45;;;;;;;8.18;1.60;;;;;;;;;;5031503;28;20049;-86
2023/01/12 14:38:13;;;;;;;1.70;1.60;;;;;;;;;;5053392;28;20640;-87
2023/01/12 14:40:39;;;;;;;1.40;1.30;;;;;;;;;;5053165;28;20056;-90
2023/01/12 14:48:58;;;;;;;2.95;2.72;;;;;;;;;;4991431;28;20057;-88
2023/01/12 14:51:26;;;;;;;2.67;2.47;;;;;;;;;;4987737;28;20046;-89
2023/01/12 14:53:57;;;;;;;1.02;1.02;;;;;;;;;;4991463;28;20129;-89
2023/01/12 14:56:25;;;;;;;3.85;2.58;;;;;;;;;;4978845;28;20126;-88
2023/01/12 14:58:51;;;;;;;2.40;2.28;;;;;;;;;;4971456;28;20051;-88
2023/01/12 15:01:29;;;;;;;3.30;3.10;;;;;;;;;;4971820;28;20419;-89
2023/01/12 15:03:56;;;;;;;5.45;3.70;;;;;;;;;;4971869;28;20466;-88
2023/01/12 15:06:22;;;;;;;5.15;3.10;;;;;;;;;;4971734;28;20101;-88
2023/01/12 15:08:52;;;;;;;2.92;2.22;;;;;;;;;;4971590;28;20101;-88
2023/01/12 15:11:28;;;;;;;2.13;2.00;;;;;;;;;;4971700;28;20059;-88
2023/01/12 15:13:55;;;;;;;3.03;2.13;;;;;;;;;;4971457;28;20125;-88
2023/01/12 15:27:20;;;;;;;3.97;3.78;;;;;;;;;;5032257;28;20079;-90
2023/01/12 15:29:46;;;;;;;2.13;2.03;;;;;;;;;;5032482;28;20049;-88
2023/01/12 15:32:17;;;;;;;2.50;2.40;;;;;;;;;;5032189;28;20504;-88
2023/01/12 15:34:44;;;;;;;;;;;;;;;;;;5034441;28;20519;-89
2023/01/12 15:37:13;;;;;;;3.35;3.15;;;;;;;;;;5036902;28;19925;-89
2023/01/12 15:39:40;;;;;;;3.15;2.90;;;;;;;;;;5036666;28;20547;-89
2023/01/12 15:42:15;;;;;;;2.40;2.28;;;;;;;;;;5036474;28;20103;-89
2023/01/12 15:44:42;;;;;;;3.22;3.03;;;;;;;;;;5036803;28;20053;-89
2023/01/12 15:47:11;;;;;;;1.95;1.85;;;;;;;;;;5036791;28;20041;-89
2023/01/12 15:49:37;;;;;;;3.88;3.45;;;;;;;;;;5036260;28;20067;-89